sensor_id;sensor_type;location;lat;lon;timestamp;pressure;altitude;pressure_sealevel;temperature;humidity
26978;BME280;56314;48.088;11.642;2023-05-22T00:01:18;94998.53;;;14.89;83.08
26978;BME280;56314;48.088;11.642;2023-05-22T00:03:44;95003.69;;;14.73;83.43
26978;BME280;56314;48.088;11.642;2023-05-22T00:06:09;95005.75;;;14.61;84.33
26978;BME280;56314;48.088;11.642;2023-05-22T00:08:36;95000.13;;;14.64;84.88
26978;BME280;56314;48.088;11.642;2023-05-22T00:11:01;95000.28;;;14.62;84.50
26978;BME280;56314;48.088;11.642;2023-05-22T00:13:27;95006.56;;;14.61;84.63
26978;BME280;56314;48.088;11.642;2023-05-22T00:15:53;95006.63;;;14.52;85.20
26978;BME280;56314;48.088;11.642;2023-05-22T00:18:18;94999.03;;;14.49;84.79
26978;BME280;56314;48.088;11.642;2023-05-22T00:20:43;95008.75;;;14.48;85.38
26978;BME280;56314;48.088;11.642;2023-05-22T00:23:12;95009.97;;;14.36;85.52
26978;BME280;56314;48.088;11.642;2023-05-22T00:25:37;95018.34;;;14.31;86.56
26978;BME280;56314;48.088;11.642;2023-05-22T00:28:03;95016.00;;;14.28;86.68
26978;BME280;56314;48.088;11.642;2023-05-22T00:30:29;95011.41;;;14.30;86.73
26978;BME280;56314;48.088;11.642;2023-05-22T00:32:55;95001.91;;;14.19;86.51
26978;BME280;56314;48.088;11.642;2023-05-22T00:35:21;95007.84;;;14.21;86.89
26978;BME280;56314;48.088;11.642;2023-05-22T00:37:46;95010.72;;;14.10;87.17
26978;BME280;56314;48.088;11.642;2023-05-22T00:40:13;95007.03;;;14.03;87.60
26978;BME280;56314;48.088;11.642;2023-05-22T00:42:42;95014.31;;;14.09;87.35
26978;BME280;56314;48.088;11.642;2023-05-22T00:45:09;95009.38;;;14.06;87.76
26978;BME280;56314;48.088;11.642;2023-05-22T00:47:35;95007.72;;;14.05;87.65
26978;BME280;56314;48.088;11.642;2023-05-22T00:50:00;95011.31;;;14.04;87.40
26978;BME280;56314;48.088;11.642;2023-05-22T00:52:26;95004.72;;;13.90;87.71
26978;BME280;56314;48.088;11.642;2023-05-22T00:54:52;95001.34;;;13.97;87.33
26978;BME280;56314;48.088;11.642;2023-05-22T00:57:18;95004.59;;;13.91;87.39
26978;BME280;56314;48.088;11.642;2023-05-22T00:59:44;95002.25;;;13.88;87.16
26978;BME280;56314;48.088;11.642;2023-05-22T01:02:10;95007.06;;;13.93;86.27
26978;BME280;56314;48.088;11.642;2023-05-22T01:04:37;95005.69;;;13.70;87.51
26978;BME280;56314;48.088;11.642;2023-05-22T01:07:03;95009.75;;;13.65;88.46
26978;BME280;56314;48.088;11.642;2023-05-22T01:09:30;95011.38;;;13.66;87.25
26978;BME280;56314;48.088;11.642;2023-05-22T01:12:19;95011.94;;;13.69;86.42
26978;BME280;56314;48.088;11.642;2023-05-22T01:15:09;95014.34;;;13.63;86.35
26978;BME280;56314;48.088;11.642;2023-05-22T01:18:19;95013.22;;;13.65;86.00
26978;BME280;56314;48.088;11.642;2023-05-22T01:20:57;95020.31;;;13.65;85.95
26978;BME280;56314;48.088;11.642;2023-05-22T01:32:19;95030.41;;;13.42;85.63
26978;BME280;56314;48.088;11.642;2023-05-22T01:34:52;95026.66;;;13.34;85.82
26978;BME280;56314;48.088;11.642;2023-05-22T01:37:19;95028.06;;;13.29;86.83
26978;BME280;56314;48.088;11.642;2023-05-22T01:39:46;95034.75;;;13.23;86.89
26978;BME280;56314;48.088;11.642;2023-05-22T01:42:13;95034.34;;;13.18;87.08
26978;BME280;56314;48.088;11.642;2023-05-22T01:44:40;95033.75;;;13.24;87.30
26978;BME280;56314;48.088;11.642;2023-05-22T01:47:05;95034.97;;;13.30;86.44
26978;BME280;56314;48.088;11.642;2023-05-22T01:49:33;95039.28;;;13.31;87.05
26978;BME280;56314;48.088;11.642;2023-05-22T01:52:12;95037.06;;;13.26;86.40
26978;BME280;56314;48.088;11.642;2023-05-22T01:54:43;95033.91;;;13.22;86.62
26978;BME280;56314;48.088;11.642;2023-05-22T01:57:28;95041.81;;;13.22;86.55
26978;BME280;56314;48.088;11.642;2023-05-22T01:59:58;95040.84;;;13.14;86.42
26978;BME280;56314;48.088;11.642;2023-05-22T02:02:28;95041.97;;;13.11;87.10
26978;BME280;56314;48.088;11.642;2023-05-22T02:04:58;95035.75;;;13.02;86.71
26978;BME280;56314;48.088;11.642;2023-05-22T02:07:25;95039.50;;;13.09;85.02
26978;BME280;56314;48.088;11.642;2023-05-22T02:09:52;95046.66;;;13.17;84.56
26978;BME280;56314;48.088;11.642;2023-05-22T02:12:20;95034.47;;;13.16;83.84
26978;BME280;56314;48.088;11.642;2023-05-22T02:14:46;95033.09;;;13.22;83.63
26978;BME280;56314;48.088;11.642;2023-05-22T02:17:12;95031.41;;;13.21;83.70
26978;BME280;56314;48.088;11.642;2023-05-22T02:19:37;95034.75;;;13.23;83.05
26978;BME280;56314;48.088;11.642;2023-05-22T02:22:03;95035.81;;;13.30;83.23
26978;BME280;56314;48.088;11.642;2023-05-22T02:24:29;95032.91;;;13.23;84.05
26978;BME280;56314;48.088;11.642;2023-05-22T02:26:55;95040.13;;;13.21;84.05
26978;BME280;56314;48.088;11.642;2023-05-22T02:29:20;95040.66;;;13.35;84.38
26978;BME280;56314;48.088;11.642;2023-05-22T02:31:45;95040.13;;;13.31;84.35
26978;BME280;56314;48.088;11.642;2023-05-22T02:34:11;95037.75;;;13.28;83.91
26978;BME280;56314;48.088;11.642;2023-05-22T02:36:36;95040.69;;;13.25;84.04
26978;BME280;56314;48.088;11.642;2023-05-22T02:39:01;95038.72;;;13.27;84.12
26978;BME280;56314;48.088;11.642;2023-05-22T02:41:27;95045.66;;;13.28;83.37
26978;BME280;56314;48.088;11.642;2023-05-22T02:43:52;95041.81;;;13.22;83.81
26978;BME280;56314;48.088;11.642;2023-05-22T02:46:18;95041.72;;;13.04;84.54
26978;BME280;56314;48.088;11.642;2023-05-22T02:48:43;95037.41;;;13.03;84.73
26978;BME280;56314;48.088;11.642;2023-05-22T02:51:09;95039.94;;;13.05;84.09
26978;BME280;56314;48.088;11.642;2023-05-22T02:53:35;95039.25;;;12.93;84.76
26978;BME280;56314;48.088;11.642;2023-05-22T02:56:07;95035.22;;;12.89;85.64
26978;BME280;56314;48.088;11.642;2023-05-22T02:58:32;95029.56;;;12.84;85.83
26978;BME280;56314;48.088;11.642;2023-05-22T03:00:58;95037.63;;;12.72;85.87
26978;BME280;56314;48.088;11.642;2023-05-22T03:03:24;95035.53;;;12.66;85.67
26978;BME280;56314;48.088;11.642;2023-05-22T03:05:49;95034.16;;;12.62;86.17
26978;BME280;56314;48.088;11.642;2023-05-22T03:08:18;95039.44;;;12.62;83.40
26978;BME280;56314;48.088;11.642;2023-05-22T03:10:43;95033.03;;;12.65;82.96
26978;BME280;56314;48.088;11.642;2023-05-22T03:13:08;95042.47;;;12.57;82.65
26978;BME280;56314;48.088;11.642;2023-05-22T03:15:34;95037.19;;;12.67;83.07
26978;BME280;56314;48.088;11.642;2023-05-22T03:17:59;95044.41;;;12.65;82.08
26978;BME280;56314;48.088;11.642;2023-05-22T03:20:24;95044.00;;;12.60;81.67
26978;BME280;56314;48.088;11.642;2023-05-22T03:22:50;95046.75;;;12.58;81.03
26978;BME280;56314;48.088;11.642;2023-05-22T03:25:15;95050.22;;;12.49;80.96
26978;BME280;56314;48.088;11.642;2023-05-22T03:27:41;95055.09;;;12.44;80.56
26978;BME280;56314;48.088;11.642;2023-05-22T03:30:06;95055.66;;;12.47;81.08
26978;BME280;56314;48.088;11.642;2023-05-22T03:32:32;95063.97;;;12.43;80.12
26978;BME280;56314;48.088;11.642;2023-05-22T03:35:01;95061.59;;;12.40;80.43
26978;BME280;56314;48.088;11.642;2023-05-22T03:37:27;95055.50;;;12.49;80.58
26978;BME280;56314;48.088;11.642;2023-05-22T03:39:52;95064.38;;;12.58;79.32
26978;BME280;56314;48.088;11.642;2023-05-22T03:42:17;95054.53;;;12.50;79.23
26978;BME280;56314;48.088;11.642;2023-05-22T03:44:43;95058.28;;;12.47;78.65
26978;BME280;56314;48.088;11.642;2023-05-22T03:47:08;95050.94;;;12.41;78.06
26978;BME280;56314;48.088;11.642;2023-05-22T03:49:33;95058.13;;;12.39;77.91
26978;BME280;56314;48.088;11.642;2023-05-22T03:51:59;95060.22;;;12.36;80.82
26978;BME280;56314;48.088;11.642;2023-05-22T03:54:24;95054.38;;;12.61;79.82
26978;BME280;56314;48.088;11.642;2023-05-22T03:56:50;95058.84;;;12.51;79.30
26978;BME280;56314;48.088;11.642;2023-05-22T03:59:15;95055.38;;;12.51;77.03
26978;BME280;56314;48.088;11.642;2023-05-22T04:01:41;95061.03;;;12.46;75.79
26978;BME280;56314;48.088;11.642;2023-05-22T04:04:06;95066.59;;;12.43;75.93
26978;BME280;56314;48.088;11.642;2023-05-22T04:06:33;95061.63;;;12.50;77.34
26978;BME280;56314;48.088;11.642;2023-05-22T04:09:08;95066.47;;;12.44;76.45
26978;BME280;56314;48.088;11.642;2023-05-22T04:11:34;95071.28;;;12.39;76.07
26978;BME280;56314;48.088;11.642;2023-05-22T04:14:02;95071.88;;;12.43;76.21
26978;BME280;56314;48.088;11.642;2023-05-22T04:16:27;95071.72;;;12.54;76.21
26978;BME280;56314;48.088;11.642;2023-05-22T04:18:52;95069.66;;;12.58;75.86
26978;BME280;56314;48.088;11.642;2023-05-22T04:21:18;95076.59;;;12.59;75.80
26978;BME280;56314;48.088;11.642;2023-05-22T04:23:43;95069.22;;;12.72;76.35
26978;BME280;56314;48.088;11.642;2023-05-22T04:26:09;95063.13;;;12.82;76.92
26978;BME280;56314;48.088;11.642;2023-05-22T04:28:35;95065.06;;;12.89;77.08
26978;BME280;56314;48.088;11.642;2023-05-22T04:31:00;95063.66;;;12.85;77.38
26978;BME280;56314;48.088;11.642;2023-05-22T04:33:26;95071.28;;;12.88;77.83
26978;BME280;56314;48.088;11.642;2023-05-22T04:35:53;95068.66;;;12.98;77.65
26978;BME280;56314;48.088;11.642;2023-05-22T04:38:18;95065.16;;;13.07;77.44
26978;BME280;56314;48.088;11.642;2023-05-22T04:40:43;95074.69;;;13.28;76.50
26978;BME280;56314;48.088;11.642;2023-05-22T04:43:09;95074.78;;;13.46;75.99
26978;BME280;56314;48.088;11.642;2023-05-22T04:45:37;95076.38;;;13.67;74.65
26978;BME280;56314;48.088;11.642;2023-05-22T04:48:03;95074.19;;;13.90;73.70
26978;BME280;56314;48.088;11.642;2023-05-22T04:50:29;95072.59;;;14.25;71.25
26978;BME280;56314;48.088;11.642;2023-05-22T04:52:57;95069.69;;;14.46;71.94
26978;BME280;56314;48.088;11.642;2023-05-22T04:55:23;95078.34;;;14.57;71.27
26978;BME280;56314;48.088;11.642;2023-05-22T04:57:48;95067.59;;;14.68;69.06
26978;BME280;56314;48.088;11.642;2023-05-22T05:00:14;95066.84;;;14.76;70.47
26978;BME280;56314;48.088;11.642;2023-05-22T05:02:41;95067.75;;;14.85;69.65
26978;BME280;56314;48.088;11.642;2023-05-22T05:05:07;95067.13;;;14.91;69.57
26978;BME280;56314;48.088;11.642;2023-05-22T05:07:36;95073.81;;;15.03;70.60
26978;BME280;56314;48.088;11.642;2023-05-22T05:10:01;95071.16;;;15.03;69.92
26978;BME280;56314;48.088;11.642;2023-05-22T05:12:27;95071.75;;;15.15;67.97
26978;BME280;56314;48.088;11.642;2023-05-22T05:14:52;95060.94;;;15.27;69.85
26978;BME280;56314;48.088;11.642;2023-05-22T05:17:17;95062.78;;;15.61;69.46
26978;BME280;56314;48.088;11.642;2023-05-22T05:19:43;95062.69;;;15.79;68.86
26978;BME280;56314;48.088;11.642;2023-05-22T05:22:08;95061.84;;;16.21;68.37
26978;BME280;56314;48.088;11.642;2023-05-22T05:24:33;95057.34;;;16.98;66.23
26978;BME280;56314;48.088;11.642;2023-05-22T05:26:59;95061.75;;;18.03;61.71
26978;BME280;56314;48.088;11.642;2023-05-22T05:29:24;95053.25;;;18.94;57.99
26978;BME280;56314;48.088;11.642;2023-05-22T05:31:50;95046.47;;;20.05;55.35
26978;BME280;56314;48.088;11.642;2023-05-22T05:34:15;95052.66;;;20.64;52.75
26978;BME280;56314;48.088;11.642;2023-05-22T05:36:40;95044.59;;;21.22;50.90
26978;BME280;56314;48.088;11.642;2023-05-22T05:39:06;95046.56;;;21.98;46.59
26978;BME280;56314;48.088;11.642;2023-05-22T05:41:31;95055.31;;;22.34;48.36
26978;BME280;56314;48.088;11.642;2023-05-22T05:43:56;95056.88;;;22.57;48.31
26978;BME280;56314;48.088;11.642;2023-05-22T05:46:24;95054.50;;;23.29;46.15
26978;BME280;56314;48.088;11.642;2023-05-22T05:48:49;95057.38;;;23.68;42.53
26978;BME280;56314;48.088;11.642;2023-05-22T05:51:14;95047.19;;;24.10;43.07
26978;BME280;56314;48.088;11.642;2023-05-22T05:53:40;95039.88;;;24.77;42.55
26978;BME280;56314;48.088;11.642;2023-05-22T05:56:06;95039.88;;;24.77;42.69
26978;BME280;56314;48.088;11.642;2023-05-22T05:58:32;95049.16;;;25.13;42.53
26978;BME280;56314;48.088;11.642;2023-05-22T06:00:57;95048.81;;;25.53;41.42
26978;BME280;56314;48.088;11.642;2023-05-22T06:03:22;95044.16;;;25.67;40.58
26978;BME280;56314;48.088;11.642;2023-05-22T06:05:49;95049.78;;;25.84;39.13
26978;BME280;56314;48.088;11.642;2023-05-22T06:08:15;95043.06;;;26.12;37.84
26978;BME280;56314;48.088;11.642;2023-05-22T06:10:40;95042.84;;;26.63;36.39
26978;BME280;56314;48.088;11.642;2023-05-22T06:13:05;95043.22;;;26.97;38.22
26978;BME280;56314;48.088;11.642;2023-05-22T06:15:31;95041.31;;;27.40;37.37
26978;BME280;56314;48.088;11.642;2023-05-22T06:17:56;95036.28;;;27.43;34.79
26978;BME280;56314;48.088;11.642;2023-05-22T06:20:22;95041.56;;;27.74;34.92
26978;BME280;56314;48.088;11.642;2023-05-22T06:22:49;95032.53;;;28.16;34.06
26978;BME280;56314;48.088;11.642;2023-05-22T06:25:15;95039.00;;;28.55;32.54
26978;BME280;56314;48.088;11.642;2023-05-22T06:27:40;95033.22;;;28.52;32.47
26978;BME280;56314;48.088;11.642;2023-05-22T06:30:07;95038.34;;;28.77;31.44
26978;BME280;56314;48.088;11.642;2023-05-22T06:32:32;95041.25;;;29.05;31.92
26978;BME280;56314;48.088;11.642;2023-05-22T06:34:58;95038.28;;;29.06;30.90
26978;BME280;56314;48.088;11.642;2023-05-22T06:37:23;95046.78;;;29.27;30.61
26978;BME280;56314;48.088;11.642;2023-05-22T06:39:48;95034.50;;;29.36;31.20
26978;BME280;56314;48.088;11.642;2023-05-22T06:42:14;95039.00;;;29.64;31.04
26978;BME280;56314;48.088;11.642;2023-05-22T06:44:39;95039.84;;;29.87;31.08
26978;BME280;56314;48.088;11.642;2023-05-22T06:47:04;95032.94;;;29.57;31.85
26978;BME280;56314;48.088;11.642;2023-05-22T06:49:30;95038.22;;;30.03;31.20
26978;BME280;56314;48.088;11.642;2023-05-22T06:51:55;95042.00;;;29.85;31.68
26978;BME280;56314;48.088;11.642;2023-05-22T06:54:21;95046.16;;;30.10;30.81
26978;BME280;56314;48.088;11.642;2023-05-22T06:56:46;95037.53;;;30.13;30.08
26978;BME280;56314;48.088;11.642;2023-05-22T06:59:11;95051.84;;;29.91;30.56
26978;BME280;56314;48.088;11.642;2023-05-22T07:01:37;95048.03;;;30.32;30.73
26978;BME280;56314;48.088;11.642;2023-05-22T07:04:03;95055.44;;;30.59;29.98
26978;BME280;56314;48.088;11.642;2023-05-22T07:06:30;95045.16;;;30.61;30.63
26978;BME280;56314;48.088;11.642;2023-05-22T07:08:57;95047.31;;;30.86;30.34
26978;BME280;56314;48.088;11.642;2023-05-22T07:11:23;95054.25;;;30.99;29.76
26978;BME280;56314;48.088;11.642;2023-05-22T07:13:48;95058.25;;;30.69;29.76
26978;BME280;56314;48.088;11.642;2023-05-22T07:16:14;95056.66;;;30.51;30.51
26978;BME280;56314;48.088;11.642;2023-05-22T07:18:39;95059.09;;;30.69;30.45
26978;BME280;56314;48.088;11.642;2023-05-22T07:21:06;95054.66;;;31.13;30.22
26978;BME280;56314;48.088;11.642;2023-05-22T07:23:31;95057.81;;;31.32;29.84
26978;BME280;56314;48.088;11.642;2023-05-22T07:25:56;95062.44;;;31.31;29.08
26978;BME280;56314;48.088;11.642;2023-05-22T07:28:21;95049.41;;;31.06;29.73
26978;BME280;56314;48.088;11.642;2023-05-22T07:30:47;95056.38;;;31.24;29.26
26978;BME280;56314;48.088;11.642;2023-05-22T07:33:12;95055.97;;;31.38;29.39
26978;BME280;56314;48.088;11.642;2023-05-22T07:35:38;95053.38;;;31.53;29.68
26978;BME280;56314;48.088;11.642;2023-05-22T07:38:03;95056.09;;;31.53;29.62
26978;BME280;56314;48.088;11.642;2023-05-22T07:40:28;95052.66;;;31.30;29.84
26978;BME280;56314;48.088;11.642;2023-05-22T07:42:54;95056.31;;;31.46;29.95
26978;BME280;56314;48.088;11.642;2023-05-22T07:45:19;95060.38;;;31.44;30.69
26978;BME280;56314;48.088;11.642;2023-05-22T07:47:45;95064.50;;;31.19;31.03
26978;BME280;56314;48.088;11.642;2023-05-22T07:50:10;95065.03;;;31.48;31.10
26978;BME280;56314;48.088;11.642;2023-05-22T07:52:35;95059.97;;;31.62;29.62
26978;BME280;56314;48.088;11.642;2023-05-22T07:55:01;95056.88;;;31.48;29.79
26978;BME280;56314;48.088;11.642;2023-05-22T07:57:26;95061.19;;;31.44;29.16
26978;BME280;56314;48.088;11.642;2023-05-22T07:59:53;95063.47;;;31.58;29.27
26978;BME280;56314;48.088;11.642;2023-05-22T08:02:19;95069.38;;;31.87;29.50
26978;BME280;56314;48.088;11.642;2023-05-22T08:04:44;95061.88;;;32.00;29.92
26978;BME280;56314;48.088;11.642;2023-05-22T08:07:10;95056.34;;;31.84;29.89
26978;BME280;56314;48.088;11.642;2023-05-22T08:09:35;95060.97;;;31.84;30.76
26978;BME280;56314;48.088;11.642;2023-05-22T08:12:01;95053.13;;;32.35;29.76
26978;BME280;56314;48.088;11.642;2023-05-22T08:14:27;95060.25;;;32.47;31.16
26978;BME280;56314;48.088;11.642;2023-05-22T08:16:52;95046.97;;;32.61;30.14
26978;BME280;56314;48.088;11.642;2023-05-22T08:19:17;95046.94;;;32.50;29.81
26978;BME280;56314;48.088;11.642;2023-05-22T08:21:43;95051.84;;;32.59;29.88
26978;BME280;56314;48.088;11.642;2023-05-22T08:24:08;95048.75;;;32.29;29.21
26978;BME280;56314;48.088;11.642;2023-05-22T08:26:33;95055.31;;;32.49;29.74
26978;BME280;56314;48.088;11.642;2023-05-22T08:28:59;95052.41;;;32.07;30.58
26978;BME280;56314;48.088;11.642;2023-05-22T08:31:25;95050.41;;;32.35;30.01
26978;BME280;56314;48.088;11.642;2023-05-22T08:33:52;95055.34;;;32.01;30.23
26978;BME280;56314;48.088;11.642;2023-05-22T08:36:17;95049.06;;;32.43;29.73
26978;BME280;56314;48.088;11.642;2023-05-22T08:38:42;95043.63;;;32.38;30.23
26978;BME280;56314;48.088;11.642;2023-05-22T08:41:09;95045.34;;;32.12;29.49
26978;BME280;56314;48.088;11.642;2023-05-22T08:43:34;95040.38;;;32.41;30.52
26978;BME280;56314;48.088;11.642;2023-05-22T08:46:04;95035.00;;;31.98;30.50
26978;BME280;56314;48.088;11.642;2023-05-22T08:48:31;95036.97;;;32.18;30.57
26978;BME280;56314;48.088;11.642;2023-05-22T08:51:00;95032.16;;;32.26;30.26
26978;BME280;56314;48.088;11.642;2023-05-22T08:53:27;95036.75;;;32.25;29.62
26978;BME280;56314;48.088;11.642;2023-05-22T08:55:53;95034.28;;;32.23;29.49
26978;BME280;56314;48.088;11.642;2023-05-22T08:58:20;95041.22;;;32.47;30.16
26978;BME280;56314;48.088;11.642;2023-05-22T09:00:45;95036.34;;;32.54;30.41
26978;BME280;56314;48.088;11.642;2023-05-22T09:03:11;95039.34;;;32.58;28.63
26978;BME280;56314;48.088;11.642;2023-05-22T09:05:40;95038.75;;;32.45;29.68
26978;BME280;56314;48.088;11.642;2023-05-22T09:08:08;95038.09;;;32.91;29.21
26978;BME280;56314;48.088;11.642;2023-05-22T09:10:34;95037.44;;;32.63;29.32
26978;BME280;56314;48.088;11.642;2023-05-22T09:13:01;95036.75;;;32.89;30.74
26978;BME280;56314;48.088;11.642;2023-05-22T09:15:30;95033.75;;;32.95;29.44
26978;BME280;56314;48.088;11.642;2023-05-22T09:17:55;95046.25;;;32.96;29.39
26978;BME280;56314;48.088;11.642;2023-05-22T09:20:20;95039.50;;;33.25;28.56
26978;BME280;56314;48.088;11.642;2023-05-22T09:22:46;95040.31;;;33.15;28.41
26978;BME280;56314;48.088;11.642;2023-05-22T09:25:17;95032.66;;;33.02;29.55
26978;BME280;56314;48.088;11.642;2023-05-22T09:27:47;95045.16;;;32.87;28.63
26978;BME280;56314;48.088;11.642;2023-05-22T09:30:16;95031.00;;;32.80;29.27
26978;BME280;56314;48.088;11.642;2023-05-22T09:32:43;95036.75;;;32.99;29.14
26978;BME280;56314;48.088;11.642;2023-05-22T09:35:08;95037.31;;;33.11;30.11
26978;BME280;56314;48.088;11.642;2023-05-22T09:37:35;95034.88;;;33.46;29.82
26978;BME280;56314;48.088;11.642;2023-05-22T09:40:10;95038.13;;;33.27;28.64
26978;BME280;56314;48.088;11.642;2023-05-22T09:42:37;95035.16;;;33.13;29.36
26978;BME280;56314;48.088;11.642;2023-05-22T09:45:06;95033.25;;;33.19;29.29
26978;BME280;56314;48.088;11.642;2023-05-22T09:47:33;95036.50;;;33.06;30.15
26978;BME280;56314;48.088;11.642;2023-05-22T09:50:00;95033.25;;;33.45;30.90
26978;BME280;56314;48.088;11.642;2023-05-22T09:52:28;95037.00;;;32.97;29.05
26978;BME280;56314;48.088;11.642;2023-05-22T09:54:57;95037.00;;;32.97;29.57
26978;BME280;56314;48.088;11.642;2023-05-22T09:57:26;95040.81;;;32.91;29.03
26978;BME280;56314;48.088;11.642;2023-05-22T09:59:55;95043.84;;;33.10;29.93
26978;BME280;56314;48.088;11.642;2023-05-22T10:02:26;95037.31;;;33.01;29.98
26978;BME280;56314;48.088;11.642;2023-05-22T10:04:52;95037.91;;;33.44;30.72
26978;BME280;56314;48.088;11.642;2023-05-22T10:07:21;95039.47;;;33.87;30.19
26978;BME280;56314;48.088;11.642;2023-05-22T10:09:51;95035.69;;;33.88;29.76
26978;BME280;56314;48.088;11.642;2023-05-22T10:12:22;95034.59;;;33.63;28.79
26978;BME280;56314;48.088;11.642;2023-05-22T10:14:47;95040.31;;;33.72;30.72
26978;BME280;56314;48.088;11.642;2023-05-22T10:17:14;95034.06;;;33.51;29.14
26978;BME280;56314;48.088;11.642;2023-05-22T10:19:41;95037.06;;;33.49;29.61
26978;BME280;56314;48.088;11.642;2023-05-22T10:22:07;95031.34;;;33.71;28.72
26978;BME280;56314;48.088;11.642;2023-05-22T10:24:33;95028.09;;;33.54;29.87
26978;BME280;56314;48.088;11.642;2023-05-22T10:26:58;95031.63;;;33.39;28.69
26978;BME280;56314;48.088;11.642;2023-05-22T10:29:39;95029.97;;;33.33;29.37
26978;BME280;56314;48.088;11.642;2023-05-22T10:40:09;95025.34;;;33.12;30.66
26978;BME280;56314;48.088;11.642;2023-05-22T10:42:36;95026.97;;;33.08;30.85
26978;BME280;56314;48.088;11.642;2023-05-22T10:45:02;95023.44;;;33.08;31.24
26978;BME280;56314;48.088;11.642;2023-05-22T10:47:28;95020.72;;;33.23;29.84
26978;BME280;56314;48.088;11.642;2023-05-22T10:50:09;95023.44;;;33.18;30.70
26978;BME280;56314;48.088;11.642;2023-05-22T10:52:36;95019.91;;;33.18;31.12
26978;BME280;56314;48.088;11.642;2023-05-22T10:55:08;95013.41;;;33.39;30.77
26978;BME280;56314;48.088;11.642;2023-05-22T10:57:37;95016.13;;;33.34;30.53
26978;BME280;56314;48.088;11.642;2023-05-22T11:00:07;95016.94;;;33.35;29.74
26978;BME280;56314;48.088;11.642;2023-05-22T11:02:38;95012.81;;;33.16;29.24
26978;BME280;56314;48.088;11.642;2023-05-22T11:08:08;95012.31;;;33.61;31.56
26978;BME280;56314;48.088;11.642;2023-05-22T11:10:53;95015.28;;;33.75;31.52
26978;BME280;56314;48.088;11.642;2023-05-22T11:13:18;95013.63;;;33.74;30.93
26978;BME280;56314;48.088;11.642;2023-05-22T11:15:44;95015.81;;;33.56;31.82
26978;BME280;56314;48.088;11.642;2023-05-22T11:18:11;95012.56;;;33.65;30.66
26978;BME280;56314;48.088;11.642;2023-05-22T11:20:38;95010.66;;;33.70;30.29
26978;BME280;56314;48.088;11.642;2023-05-22T11:23:05;95015.81;;;33.25;31.16
26978;BME280;56314;48.088;11.642;2023-05-22T11:25:36;95010.66;;;33.29;31.20
26978;BME280;56314;48.088;11.642;2023-05-22T11:28:05;94998.97;;;33.03;30.21
26978;BME280;56314;48.088;11.642;2023-05-22T11:30:31;95008.75;;;33.29;30.90
26978;BME280;56314;48.088;11.642;2023-05-22T11:32:57;95010.97;;;33.43;31.18
26978;BME280;56314;48.088;11.642;2023-05-22T11:35:23;95012.03;;;33.16;30.27
26978;BME280;56314;48.088;11.642;2023-05-22T11:37:50;95007.13;;;33.18;32.00
26978;BME280;56314;48.088;11.642;2023-05-22T11:40:23;95007.13;;;33.23;31.22
26978;BME280;56314;48.088;11.642;2023-05-22T11:42:50;94998.97;;;33.03;31.88
26978;BME280;56314;48.088;11.642;2023-05-22T11:45:16;94999.25;;;33.01;31.20
26978;BME280;56314;48.088;11.642;2023-05-22T11:47:42;94985.06;;;32.94;31.11
26978;BME280;56314;48.088;11.642;2023-05-22T11:50:09;94989.69;;;32.83;30.41
26978;BME280;56314;48.088;11.642;2023-05-22T11:52:36;94987.69;;;32.47;32.17
26978;BME280;56314;48.088;11.642;2023-05-22T11:55:06;94988.13;;;32.23;31.50
26978;BME280;56314;48.088;11.642;2023-05-22T11:57:35;94988.03;;;32.03;30.18
26978;BME280;56314;48.088;11.642;2023-05-22T12:00:02;94978.56;;;32.16;32.66
26978;BME280;56314;48.088;11.642;2023-05-22T12:02:30;94979.94;;;32.18;33.79
26978;BME280;56314;48.088;11.642;2023-05-22T12:04:56;94987.06;;;32.30;34.29
26978;BME280;56314;48.088;11.642;2023-05-22T12:07:24;94989.53;;;32.31;31.60
26978;BME280;56314;48.088;11.642;2023-05-22T12:09:50;94988.84;;;32.03;33.15
26978;BME280;56314;48.088;11.642;2023-05-22T12:12:16;94981.72;;;31.92;30.60
26978;BME280;56314;48.088;11.642;2023-05-22T12:14:45;94988.69;;;31.77;32.91
26978;BME280;56314;48.088;11.642;2023-05-22T12:17:11;94990.16;;;31.90;34.10
26978;BME280;56314;48.088;11.642;2023-05-22T12:19:40;94984.97;;;31.89;34.11
26978;BME280;56314;48.088;11.642;2023-05-22T12:22:07;94980.09;;;31.91;33.81
26978;BME280;56314;48.088;11.642;2023-05-22T12:24:40;94984.63;;;31.37;33.45
26978;BME280;56314;48.088;11.642;2023-05-22T12:27:09;94981.47;;;30.85;32.23
26978;BME280;56314;48.088;11.642;2023-05-22T12:29:35;94977.69;;;30.86;33.10
26978;BME280;56314;48.088;11.642;2023-05-22T12:32:08;94982.72;;;31.05;35.77
26978;BME280;56314;48.088;11.642;2023-05-22T12:34:44;94977.84;;;31.02;34.81
26978;BME280;56314;48.088;11.642;2023-05-22T12:37:20;94978.75;;;31.13;34.65
26978;BME280;56314;48.088;11.642;2023-05-22T12:39:56;94973.16;;;31.25;35.36
26978;BME280;56314;48.088;11.642;2023-05-22T12:42:21;94974.59;;;31.38;35.35
26978;BME280;56314;48.088;11.642;2023-05-22T12:44:47;94977.00;;;31.34;35.39
26978;BME280;56314;48.088;11.642;2023-05-22T12:47:12;94971.00;;;30.99;35.49
26978;BME280;56314;48.088;11.642;2023-05-22T12:49:38;94960.16;;;30.99;35.00
26978;BME280;56314;48.088;11.642;2023-05-22T12:52:03;94973.94;;;30.93;35.65
26978;BME280;56314;48.088;11.642;2023-05-22T12:54:28;94957.41;;;30.62;34.72
26978;BME280;56314;48.088;11.642;2023-05-22T12:56:54;94961.25;;;30.44;36.04
26978;BME280;56314;48.088;11.642;2023-05-22T12:59:19;94962.72;;;30.29;36.42
26978;BME280;56314;48.088;11.642;2023-05-22T13:01:45;94973.50;;;30.24;35.92
26978;BME280;56314;48.088;11.642;2023-05-22T13:04:10;94961.47;;;30.15;34.30
26978;BME280;56314;48.088;11.642;2023-05-22T13:06:35;94952.91;;;30.01;35.88
26978;BME280;56314;48.088;11.642;2023-05-22T13:09:01;94953.41;;;30.20;36.52